AirNav   Pilot Hours Calculator
 
 1008 users online  

95FL Pinellas County Mosquito Control Heliport
Pinellas Park, Florida, USA

GOING TO PINELLAS PARK?


FAA INFORMATION EFFECTIVE 07 NOVEMBER 2019

Location

FAA Identifier: 95FL
Lat/Long: 27-52-33.2100N 082-41-21.6800W
27-52.553500N 082-41.361333W
27.8758917,-82.6893556
(estimated)
Elevation: 10 ft. / 3 m (estimated)
Variation: 02W (1985)
From city: 2 miles SSW of PINELLAS PARK, FL
Time zone: UTC -5 (UTC -4 during Daylight Saving Time)
Zip code: 33762

Heliport Operations

Heliport use: Private use. Permission required prior to landing
Activation date: 04/1983
Control tower: no
ARTCC: MIAMI CENTER
FSS: SAINT PETERSBURG FLIGHT SERVICE STATION
Attendance: MON-FRI 0630-1730
Wind indicator: yes
Segmented circle: no

Heliport Communications

WX ASOS at PIE (2.0 nm N): PHONE 727-531-3456
WX AWOS-3P at CLW (7 nm NW): 119.225 (727-449-2184)
WX ASOS at SPG (7 nm SE): 118.875 (727-821-4334)
WX ASOS at TPA (10 nm NE): PHONE 813-873-7228
WX AWOS-3 at TPF (13 nm E): 118.925 (813-251-6824)

Nearby radio navigation aids

VOR radial/distance  VOR name  Freq  Var
PIEr193/1.9ST PETERSBURG VORTAC116.4005W
SRQr352/28.9SARASOTA VOR/DME117.0005W
LALr259/36.4LAKELAND VORTAC116.0001E

 
NDB name  Hdg/Dist  Freq  Var  ID
CAPOK179/7.236005WPI .--. ..

Heliport Services

Runway Information

Helipad H1

Dimensions: 250 x 250 ft. / 76 x 76 m
Surface: asphalt
Latitude: 27-52.553500N
Longitude: 082-41.361333W
Elevation: 10.0 ft.
Traffic pattern: leftleft

Heliport Ownership and Management from official FAA records

Ownership: Publicly-owned
Owner: PINELLAS COUNTY MOSQUITO CTL
4100 118TH AVENUE NORTH
CLEARWATER, FL 33762
Phone (727) 464-7503
Manager: BRIAN LAWTON
4100 118TH AVENUE NORTH
CLEARWATER, FL 33762
Phone 727-464-7503

Heliport Operational Statistics

Aircraft based on the field: 2
Helicopters: 2
    

Additional Remarks

FOR CD CTC TAMPA APCH AT 813-878-2528

Instrument Procedures

There are no published instrument procedures at 95FL.

Some nearby airports with instrument procedures:

KPIE - St Pete-Clearwater International Airport (2 nm N)
KCLW - Clearwater Air Park (7 nm NW)
KSPG - Albert Whitted Airport (7 nm SE)
KMCF - MacDill Air Force Base (9 nm E)
KTPA - Tampa International Airport (10 nm NE)
KTPF - Peter O Knight Airport (13 nm E)
 
Loc | Ops | Rwys | IFR | FBO | Links
Com | Nav | Svcs | Stats | Notes


 
Area around 95FL (Pinellas County Mosquito Control Heliport)
 
Road maps at: MapQuest Bing Google
 
Aerial photo
No photo
 
Sectional chart

 
Airport distance calculator
Flying to Pinellas County Mosquito Control Heliport? Find the distance to fly.

From to 95FL

Sunrise and sunset
Times for 20-Nov-2019
 Local
(UTC-5)
 Zulu
(UTC)
Morning civil twilight06:3211:32
Sunrise06:5711:57
Sunset17:3622:36
Evening civil twilight18:0123:01

Current date and time
Zulu (UTC)  20-Nov-2019 12:41:48
Local (UTC-5)  20-Nov-2019 07:41:48
 
METAR
KPIE 
2nm N 
201153Z 00000KT 10SM CLR 12/10 A3011 RMK AO2 SLP195 60000 T01170100 10128 20111 53017
KCLW 
7nm NW 
201215Z AUTO 00000KT 10SM CLR 11/10 A3013 RMK AO2
KSPG 
7nm SE 
201153Z 00000KT 10SM CLR 17/14 A3009 RMK AO2 SLP190 T01670144 10172 20150 53018
KMCF 
9nm E 
201206Z AUTO 00000KT 5SM BR CLR 11/10 A3011 RMK AO2 VIS 1/8 RWY22 SLP199 FZRANO $
KTPA 
10nm NE 
201153Z 00000KT 10SM FEW250 13/11 A3011 RMK AO2 SLP197 T01330111 10144 20117 53017
KTPF 
13nm E 
201215Z AUTO 00000KT 1SM BR VV007 A3013 RMK AO2 VIS 1/4V3
KVDF 
20nm NE 
201215Z AUTO 00000KT 1 3/4SM BR VV007 07/07 A3013 RMK AO2
TAF
KPIE 
2nm N 
201125Z 2012/2112 VRB03KT P6SM SKC TEMPO 2012/2013 5SM BR FM201500 36006KT P6SM SKC FM201900 33007KT P6SM SKC FM210100 03004KT P6SM SKC
KMCF 
9nm E 
200900Z 2009/2115 VRB06KT 9999 SKC QNH3005INS TEMPO 2009/2012 VRB06KT 4800 BR SKC BECMG 2102/2103 02009KT 9999 SKC QNH3016INS TX23/2019Z TN10/2012Z
KTPA 
10nm NE 
201125Z 2012/2118 VRB03KT P6SM SKC FM201500 35006KT P6SM FEW250 FM201800 31007KT P6SM SKC FM210100 03004KT P6SM SKC FM211500 07006KT P6SM SKC
NOTAMs
Click for the latest NOTAMs
NOTAMs are issued by the DoD/FAA and will open in a separate window not controlled by AirNav.

 

 
 

Would you like to see your business listed on this page?

 If your business provides an interesting product or service to pilots, flight crews, aircraft, or users of the Pinellas County Mosquito Control Heliport, you should consider listing it here.  To start the listing process, click on the button below
 
Add a business
 

Other Pages about Pinellas County Mosquito Control Heliport

Update a link
 
Copyright © AirNav, LLC. All rights reserved. Privacy Policy  Contact